createdAt,value
2022-09-12T00:01:53.905Z,14.30
2022-09-12T00:04:55.593Z,17.00
2022-09-12T00:07:57.209Z,14.20
2022-09-12T00:11:03.924Z,17.07
2022-09-12T00:14:07.359Z,15.27
2022-09-12T00:17:08.991Z,15.70
2022-09-12T00:20:11.739Z,16.23
2022-09-12T00:23:14.264Z,16.53
2022-09-12T00:26:17.390Z,17.73
2022-09-12T00:29:21.616Z,16.53
2022-09-12T00:32:23.493Z,16.17
2022-09-12T00:35:25.096Z,15.33
2022-09-12T00:38:26.719Z,16.50
2022-09-12T00:41:31.368Z,18.17
2022-09-12T00:44:35.933Z,15.00
2022-09-12T00:47:37.977Z,17.43
2022-09-12T00:50:39.646Z,12.43
2022-09-12T00:53:45.831Z,17.10
2022-09-12T00:56:51.049Z,13.73
2022-09-12T01:00:08.093Z,13.30
2022-09-12T01:03:15.636Z,15.17
2022-09-12T01:06:30.047Z,15.70
2022-09-12T01:09:32.013Z,14.87
2022-09-12T01:12:34.746Z,13.83
2022-09-12T01:15:49.756Z,16.97
2022-09-12T01:19:06.328Z,14.37
2022-09-12T01:22:41.189Z,14.23
2022-09-12T01:26:06.819Z,14.60
2022-09-12T01:29:35.218Z,17.67
2022-09-12T01:32:58.095Z,14.63
2022-09-12T01:36:11.645Z,15.30
2022-09-12T01:39:52.476Z,13.93
2022-09-12T01:42:57.868Z,15.83
2022-09-12T01:46:38.993Z,15.47
2022-09-12T01:49:59.201Z,14.67
2022-09-12T01:53:08.720Z,16.57
2022-09-12T01:56:22.361Z,14.73
2022-09-12T01:59:33.324Z,13.50
2022-09-12T02:02:51.904Z,15.27
2022-09-12T02:06:00.753Z,14.63
2022-09-12T02:09:08.941Z,16.43
2022-09-12T02:12:14.820Z,17.33
2022-09-12T02:15:20.304Z,14.17
2022-09-12T02:18:25.016Z,15.10
2022-09-12T02:21:32.837Z,15.77
2022-09-12T02:24:40.590Z,14.77
2022-09-12T02:27:47.033Z,15.60
2022-09-12T02:31:09.159Z,12.77
2022-09-12T02:34:22.790Z,13.33
2022-09-12T02:37:33.597Z,16.23
2022-09-12T02:40:35.984Z,12.80
2022-09-12T02:43:38.161Z,13.80
2022-09-12T02:46:46.549Z,12.17
2022-09-12T02:49:48.548Z,13.47
2022-09-12T02:52:53.676Z,15.20
2022-09-12T02:55:55.759Z,13.97
2022-09-12T02:59:05.121Z,14.43
2022-09-12T03:02:21.799Z,11.33
2022-09-12T03:05:47.280Z,11.90
2022-09-12T03:08:48.869Z,11.83
2022-09-12T03:12:19.208Z,13.57
2022-09-12T03:15:43.026Z,12.30
2022-09-12T03:19:12.158Z,14.67
2022-09-12T03:22:25.312Z,15.23
2022-09-12T03:25:35.916Z,16.50
2022-09-12T03:28:39.389Z,15.67
2022-09-12T03:31:55.523Z,14.17
2022-09-12T03:34:57.130Z,15.60
2022-09-12T03:37:58.744Z,14.80
2022-09-12T03:41:01.222Z,15.80
2022-09-12T03:44:03.500Z,15.10
2022-09-12T03:47:09.234Z,16.20
2022-09-12T03:50:12.749Z,16.07
2022-09-12T03:53:17.230Z,14.27
2022-09-12T03:56:19.316Z,16.20
2022-09-12T03:59:20.933Z,15.63
2022-09-12T04:02:24.246Z,16.10
2022-09-12T04:05:26.155Z,15.77
2022-09-12T04:08:28.789Z,16.37
2022-09-12T04:11:32.121Z,14.57
2022-09-12T04:14:34.218Z,17.17
2022-09-12T04:17:36.084Z,14.87
2022-09-12T04:20:37.692Z,15.70
2022-09-12T04:23:39.454Z,15.03
2022-09-12T04:26:41.148Z,15.23
2022-09-12T04:29:42.784Z,14.93
2022-09-12T04:32:44.381Z,17.03
2022-09-12T04:35:46.065Z,17.70
2022-09-12T04:38:47.935Z,17.90
2022-09-12T04:41:49.653Z,18.00
2022-09-12T04:44:51.976Z,16.23
2022-09-12T04:47:53.580Z,16.67
2022-09-12T04:50:55.188Z,17.47
2022-09-12T04:53:59.656Z,16.03
2022-09-12T04:57:01.305Z,13.33
2022-09-12T05:00:07.319Z,17.43
2022-09-12T05:03:09.128Z,16.47
2022-09-12T05:06:13.887Z,15.03
2022-09-12T05:09:16.449Z,13.77
2022-09-12T05:12:18.679Z,14.60
2022-09-12T05:15:20.293Z,17.77
2022-09-12T05:18:22.000Z,14.90
2022-09-12T05:21:24.331Z,14.00
2022-09-12T05:24:25.993Z,14.47
2022-09-12T05:27:27.701Z,17.10
2022-09-12T05:30:29.395Z,17.53
2022-09-12T05:33:32.641Z,17.37
2022-09-12T05:36:34.377Z,14.77
2022-09-12T05:39:36.009Z,21.53
2022-09-12T05:42:37.640Z,17.03
2022-09-12T05:45:39.415Z,20.73
2022-09-12T05:48:42.658Z,18.67
2022-09-12T05:51:50.735Z,17.13
2022-09-12T05:54:52.462Z,14.50
2022-09-12T05:57:54.184Z,15.33
2022-09-12T06:00:57.339Z,13.03
2022-09-12T06:04:01.977Z,11.17
2022-09-12T06:07:03.641Z,12.57
2022-09-12T06:10:05.706Z,10.83
2022-09-12T06:13:08.589Z,9.37
2022-09-12T06:16:22.418Z,9.70
2022-09-12T06:19:25.015Z,9.83
2022-09-12T06:22:26.652Z,9.07
2022-09-12T06:25:28.338Z,8.17
2022-09-12T06:28:31.278Z,8.27
2022-09-12T06:31:36.305Z,9.20
2022-09-12T06:34:38.012Z,8.47
2022-09-12T06:37:40.632Z,8.20
2022-09-12T06:40:44.607Z,9.17
2022-09-12T06:43:46.333Z,8.07
2022-09-12T06:46:48.596Z,10.67
2022-09-12T06:49:50.879Z,11.23
2022-09-12T06:52:52.534Z,7.77
2022-09-12T06:56:02.309Z,7.43
2022-09-12T06:59:07.151Z,10.10
2022-09-12T07:02:09.953Z,8.63
2022-09-12T07:05:11.603Z,7.83
2022-09-12T07:08:13.237Z,8.20
2022-09-12T07:11:31.752Z,8.20
2022-09-12T07:14:33.448Z,7.50
2022-09-12T07:17:35.045Z,6.40
2022-09-12T07:20:39.089Z,7.80
2022-09-12T07:23:41.964Z,7.13
2022-09-12T07:26:43.996Z,6.77
2022-09-12T07:29:46.806Z,7.03
2022-09-12T07:32:54.756Z,6.30
2022-09-12T07:36:01.708Z,7.63
2022-09-12T07:39:03.515Z,6.47
2022-09-12T07:42:05.480Z,6.23
2022-09-12T07:45:07.886Z,6.87
2022-09-12T07:48:10.025Z,5.77
2022-09-12T07:51:12.844Z,8.27
2022-09-12T07:54:29.894Z,7.30
2022-09-12T07:57:31.597Z,6.23
2022-09-12T08:00:35.915Z,5.33
2022-09-12T08:03:37.591Z,5.90
2022-09-12T08:06:39.246Z,5.23
2022-09-12T08:09:40.880Z,6.13
2022-09-12T08:12:42.490Z,4.93
2022-09-12T08:15:44.125Z,5.03
2022-09-12T08:18:45.932Z,5.20
2022-09-12T08:21:47.518Z,5.10
2022-09-12T08:24:49.504Z,5.30
2022-09-12T08:28:01.277Z,5.83
2022-09-12T08:31:04.666Z,6.40
2022-09-12T08:34:07.091Z,5.93
2022-09-12T08:37:08.685Z,4.90
2022-09-12T08:40:16.813Z,4.43
2022-09-12T08:43:56.960Z,5.70
2022-09-12T08:47:17.134Z,4.27
2022-09-12T08:50:21.983Z,4.33
2022-09-12T08:53:28.001Z,5.40
2022-09-12T08:56:35.483Z,4.27
2022-09-12T08:59:42.865Z,4.10
2022-09-12T09:03:23.713Z,5.47
2022-09-12T09:07:03.910Z,4.00
2022-09-12T09:10:33.788Z,3.00
2022-09-12T09:14:12.719Z,2.70
2022-09-12T09:17:43.641Z,2.57
2022-09-12T09:20:56.067Z,3.30
2022-09-12T09:24:03.940Z,3.67
2022-09-12T09:27:47.103Z,3.97
2022-09-12T09:30:49.253Z,3.60
2022-09-12T09:33:55.109Z,4.67
2022-09-12T09:37:20.769Z,5.67
2022-09-12T09:40:29.601Z,5.00
2022-09-12T09:43:31.388Z,4.07
2022-09-12T09:46:33.650Z,3.83
2022-09-12T09:49:36.316Z,4.17
2022-09-12T09:52:39.528Z,3.60
2022-09-12T09:55:44.208Z,4.53
2022-09-12T09:58:51.831Z,5.80
2022-09-12T10:01:57.805Z,5.77
2022-09-12T10:05:24.663Z,4.90
2022-09-12T10:08:37.877Z,3.57
2022-09-12T10:11:45.104Z,5.67
2022-09-12T10:14:58.024Z,3.53
2022-09-12T10:17:59.975Z,5.50
2022-09-12T10:21:03.478Z,6.87
2022-09-12T10:24:25.395Z,3.80
2022-09-12T10:27:33.941Z,7.30
2022-09-12T10:30:36.297Z,4.50
2022-09-12T10:33:53.152Z,7.43
2022-09-12T10:37:00.136Z,4.47
2022-09-12T10:40:04.187Z,4.00
2022-09-12T10:43:34.800Z,3.97
2022-09-12T10:46:36.444Z,5.00
2022-09-12T10:49:40.252Z,5.67
2022-09-12T10:52:41.992Z,4.57
2022-09-12T10:56:10.001Z,4.53
2022-09-12T10:59:36.675Z,3.90
2022-09-12T11:03:19.734Z,3.53
2022-09-12T11:06:31.037Z,3.73
2022-09-12T11:09:41.273Z,4.20
2022-09-12T11:12:50.584Z,4.37
2022-09-12T11:15:59.134Z,5.07
2022-09-12T11:19:09.715Z,2.90
2022-09-12T11:22:35.744Z,3.60
2022-09-12T11:25:43.382Z,2.80
2022-09-12T11:29:09.875Z,3.67
2022-09-12T11:32:30.937Z,9.30
2022-09-12T11:35:35.060Z,3.47
2022-09-12T11:38:57.330Z,3.17
2022-09-12T11:42:03.210Z,3.77
2022-09-12T11:45:19.872Z,3.50
2022-09-12T11:48:37.493Z,4.00
2022-09-12T11:51:48.251Z,5.37
2022-09-12T11:55:11.363Z,5.60
2022-09-12T11:58:13.194Z,3.27
2022-09-12T12:01:21.696Z,3.20
2022-09-12T12:04:39.824Z,3.00
2022-09-12T12:07:45.736Z,3.50
2022-09-12T12:10:59.884Z,3.27
2022-09-12T12:14:14.677Z,3.60
2022-09-12T12:17:19.675Z,3.20
2022-09-12T12:20:23.348Z,3.37
2022-09-12T12:23:32.025Z,3.23
2022-09-12T12:26:42.586Z,3.70
2022-09-12T12:29:44.893Z,2.33
2022-09-12T12:32:46.530Z,3.27
2022-09-12T12:36:00.463Z,4.27
2022-09-12T12:39:51.234Z,2.83
2022-09-12T12:43:04.787Z,4.27
2022-09-12T12:46:08.348Z,2.40
2022-09-12T12:49:20.563Z,2.67
2022-09-12T12:52:22.666Z,2.87
2022-09-12T12:55:28.923Z,3.70
2022-09-12T12:58:37.175Z,4.20
2022-09-12T13:01:50.437Z,2.90
2022-09-12T13:04:55.883Z,6.20
2022-09-12T13:08:06.618Z,2.47
2022-09-12T13:11:29.444Z,5.17
2022-09-12T13:14:55.445Z,3.40
2022-09-12T13:18:02.190Z,2.43
2022-09-12T13:21:31.043Z,2.93
2022-09-12T13:24:32.953Z,2.67
2022-09-12T13:27:34.561Z,2.30
2022-09-12T13:30:43.493Z,1.70
2022-09-12T13:33:53.602Z,1.80
2022-09-12T13:37:24.192Z,1.60
2022-09-12T13:41:01.933Z,2.17
2022-09-12T13:44:04.488Z,4.13
2022-09-12T13:47:06.204Z,1.67
2022-09-12T13:50:14.268Z,2.77
2022-09-12T13:53:43.612Z,2.40
2022-09-12T13:56:49.564Z,2.17
2022-09-12T13:59:57.468Z,2.63
2022-09-12T14:03:18.622Z,1.60
2022-09-12T14:06:20.348Z,7.27
2022-09-12T14:10:11.904Z,1.73
2022-09-12T14:13:23.711Z,1.80
2022-09-12T14:16:29.042Z,1.80
2022-09-12T14:19:32.174Z,2.00
2022-09-12T14:22:36.424Z,2.10
2022-09-12T14:25:47.289Z,2.20
2022-09-12T14:28:49.523Z,1.93
2022-09-12T14:32:04.952Z,1.87
2022-09-12T14:35:12.689Z,1.40
2022-09-12T14:38:14.267Z,1.47
2022-09-12T14:41:33.398Z,1.50
2022-09-12T14:44:35.529Z,1.50
2022-09-12T14:47:41.152Z,3.50
2022-09-12T14:50:42.776Z,4.00
2022-09-12T14:53:48.963Z,4.07
2022-09-12T14:57:03.081Z,2.00
2022-09-12T15:00:14.217Z,1.87
2022-09-12T15:03:34.694Z,2.00
2022-09-12T15:06:39.261Z,1.97
2022-09-12T15:09:46.032Z,1.60
2022-09-12T15:12:49.588Z,1.83
2022-09-12T15:15:56.645Z,2.97
2022-09-12T15:18:58.305Z,1.40
2022-09-12T15:21:59.883Z,1.40
2022-09-12T15:25:01.505Z,1.50
2022-09-12T15:28:13.101Z,3.30
2022-09-12T15:31:26.466Z,1.70
2022-09-12T15:34:28.111Z,1.70
2022-09-12T15:37:29.697Z,4.70
2022-09-12T15:40:40.443Z,1.80
2022-09-12T15:43:42.103Z,2.77
2022-09-12T15:46:43.860Z,1.90
2022-09-12T15:50:38.557Z,2.33
2022-09-12T15:53:40.397Z,2.97
2022-09-12T15:56:42.025Z,2.80
2022-09-12T15:59:43.632Z,1.97
2022-09-12T16:02:47.120Z,4.10
2022-09-12T16:05:49.367Z,1.80
2022-09-12T16:08:51.088Z,2.17
2022-09-12T16:11:52.793Z,2.67
2022-09-12T16:14:54.434Z,2.00
2022-09-12T16:17:56.041Z,2.20
2022-09-12T16:20:58.070Z,4.23
2022-09-12T16:23:59.684Z,2.30
2022-09-12T16:27:01.588Z,2.80
2022-09-12T16:30:05.175Z,2.27
2022-09-12T16:33:31.516Z,4.83
2022-09-12T16:36:33.157Z,2.37
2022-09-12T16:39:36.368Z,2.73
2022-09-12T16:42:43.088Z,2.30
2022-09-12T16:45:45.413Z,2.83
2022-09-12T16:48:52.410Z,2.77
2022-09-12T16:51:54.426Z,1.97
2022-09-12T16:54:56.318Z,1.90
2022-09-12T16:57:57.918Z,2.30
2022-09-12T17:01:08.249Z,3.40
2022-09-12T17:04:10.452Z,3.70
2022-09-12T17:07:12.074Z,8.17
2022-09-12T17:10:13.773Z,3.97
2022-09-12T17:13:15.392Z,2.10
2022-09-12T17:16:17.696Z,3.10
2022-09-12T17:19:26.642Z,3.33
2022-09-12T17:22:28.305Z,1.60
2022-09-12T17:25:29.896Z,5.50
2022-09-12T17:28:31.556Z,6.23
2022-09-12T17:31:33.518Z,5.67
2022-09-12T17:34:35.360Z,3.43
2022-09-12T17:37:37.181Z,3.53
2022-09-12T17:40:58.585Z,2.97
2022-09-12T17:44:01.767Z,2.27
2022-09-12T17:47:04.696Z,2.07
2022-09-12T17:50:30.296Z,2.20
2022-09-12T17:53:29.092Z,1.80
2022-09-12T17:56:32.300Z,1.57
2022-09-12T17:59:33.978Z,6.67
2022-09-12T18:02:35.993Z,6.30
2022-09-12T18:05:45.857Z,3.20
2022-09-12T18:09:04.059Z,3.30
2022-09-12T18:12:06.187Z,4.17
2022-09-12T18:15:08.522Z,2.60
2022-09-12T18:18:10.267Z,2.80
2022-09-12T18:21:12.614Z,2.47
2022-09-12T18:24:14.488Z,7.37
2022-09-12T18:27:16.379Z,4.17
2022-09-12T18:30:22.937Z,3.73
2022-09-12T18:33:24.757Z,3.03
2022-09-12T18:36:27.137Z,2.67
2022-09-12T18:39:28.743Z,3.23
2022-09-12T18:42:30.366Z,2.97
2022-09-12T18:45:34.908Z,3.77
2022-09-12T18:48:36.970Z,2.90
2022-09-12T18:51:40.101Z,2.60
2022-09-12T18:54:41.974Z,2.90
2022-09-12T18:57:47.710Z,3.30
2022-09-12T19:00:49.667Z,2.87
2022-09-12T19:03:52.183Z,2.53
2022-09-12T19:06:53.816Z,2.67
2022-09-12T19:10:00.627Z,3.87
2022-09-12T19:13:03.251Z,4.60
2022-09-12T19:16:09.144Z,8.00
2022-09-12T19:19:10.893Z,3.60
2022-09-12T19:22:12.509Z,3.87
2022-09-12T19:25:14.204Z,3.70
2022-09-12T19:28:20.053Z,3.03
2022-09-12T19:31:23.318Z,3.20
2022-09-12T19:34:28.051Z,3.30
2022-09-12T19:37:34.007Z,3.20
2022-09-12T19:40:36.395Z,3.70
2022-09-12T19:43:38.123Z,3.47
2022-09-12T19:46:40.382Z,3.67
2022-09-12T19:49:42.137Z,3.70
2022-09-12T19:52:43.998Z,4.80
2022-09-12T19:55:46.186Z,3.30
2022-09-12T19:58:53.515Z,3.47
2022-09-12T20:01:57.770Z,3.43
2022-09-12T20:04:59.506Z,3.80
2022-09-12T20:08:01.366Z,4.20
2022-09-12T20:11:03.059Z,5.00
2022-09-12T20:14:04.768Z,3.60
2022-09-12T20:17:06.906Z,3.67
2022-09-12T20:20:09.933Z,4.53
2022-09-12T20:23:11.511Z,4.03
2022-09-12T20:26:13.695Z,4.43
2022-09-12T20:29:17.639Z,3.97
2022-09-12T20:32:22.382Z,3.57
2022-09-12T20:35:24.045Z,3.60
2022-09-12T20:38:25.708Z,3.50
2022-09-12T20:41:29.505Z,5.17
2022-09-12T20:44:31.180Z,4.60
2022-09-12T20:47:32.788Z,5.30
2022-09-12T20:50:34.380Z,3.57
2022-09-12T20:53:36.004Z,3.53
2022-09-12T20:56:38.073Z,3.53
2022-09-12T20:59:42.432Z,4.17
2022-09-12T21:02:44.095Z,3.30
2022-09-12T21:05:46.885Z,3.43
2022-09-12T21:08:49.415Z,3.73
2022-09-12T21:11:51.058Z,4.00
2022-09-12T21:14:52.658Z,3.27
2022-09-12T21:17:54.864Z,3.90
2022-09-12T21:20:57.008Z,4.97
2022-09-12T21:24:02.830Z,3.30
2022-09-12T21:27:04.890Z,3.67
2022-09-12T21:30:07.070Z,3.23
2022-09-12T21:33:08.654Z,3.87
2022-09-12T21:36:10.432Z,3.67
2022-09-12T21:39:12.080Z,3.60
2022-09-12T21:42:13.743Z,3.67
2022-09-12T21:45:15.989Z,3.13
2022-09-12T21:48:17.567Z,3.83
2022-09-12T21:51:19.139Z,3.83
2022-09-12T21:54:20.740Z,3.53
2022-09-12T21:57:22.374Z,4.23
2022-09-12T22:00:24.058Z,3.40
2022-09-12T22:03:26.115Z,5.43
2022-09-12T22:06:27.757Z,4.43
2022-09-12T22:09:29.380Z,4.03
2022-09-12T22:12:31.309Z,3.50
2022-09-12T22:15:41.258Z,4.10
2022-09-12T22:18:43.151Z,4.17
2022-09-12T22:22:03.340Z,3.40
2022-09-12T22:25:05.494Z,4.93
2022-09-12T22:28:07.085Z,7.87
2022-09-12T22:31:13.219Z,3.63
2022-09-12T22:34:16.243Z,4.53
2022-09-12T22:37:18.007Z,3.50
2022-09-12T22:40:19.799Z,4.10
2022-09-12T22:43:21.463Z,3.53
2022-09-12T22:46:23.907Z,3.87
2022-09-12T22:49:25.564Z,3.90
2022-09-12T22:52:27.169Z,4.70
2022-09-12T22:55:28.768Z,5.47
2022-09-12T22:58:30.593Z,4.17
2022-09-12T23:01:33.215Z,3.57
2022-09-12T23:04:34.841Z,3.97
2022-09-12T23:07:36.668Z,3.63
2022-09-12T23:10:38.785Z,4.63
2022-09-12T23:13:43.336Z,4.10
2022-09-12T23:16:45.345Z,8.03
2022-09-12T23:19:46.980Z,5.17
2022-09-12T23:22:48.645Z,4.53
2022-09-12T23:26:08.161Z,5.03
2022-09-12T23:29:09.836Z,3.73
2022-09-12T23:32:11.563Z,3.90
2022-09-12T23:35:13.240Z,4.83
2022-09-12T23:38:15.717Z,3.40
2022-09-12T23:41:18.456Z,4.37
2022-09-12T23:44:20.140Z,4.30
2022-09-12T23:47:21.739Z,3.83
2022-09-12T23:50:23.721Z,3.83
2022-09-12T23:53:25.814Z,3.73
2022-09-12T23:56:27.544Z,4.07
2022-09-12T23:59:30.924Z,4.17
